Terminal Aerodrome Forecast
Issued by NWS Memphis, TN

Home | Current Version | Previous Version | Text Only | Print | Product List | Glossary On
Versions: 1 2 3 4 5 6 7 8 9 10 11 12 13 14 15 16 17 18 19
000
FTUS44 KMEG 261700
TAFMKL
TAF
KMKL 261723Z 2618/2718 23010KT P6SM FEW040
     FM270100 20005KT P6SM SKC
      TEMPO 2708/2712 5SM BR
     FM271500 24011KT P6SM BKN250=

USA.gov is the U.S. government's official web portal to all federal, state and local government web resources and services.